sensor_id;sensor_type;location;lat;lon;timestamp;temperature;humidity
40660;DHT22;26753;45.544;9.232;2023-04-03T00:01:04;15.20;99.90
40660;DHT22;26753;45.544;9.232;2023-04-03T00:03:30;15.20;99.90
40660;DHT22;26753;45.544;9.232;2023-04-03T00:05:58;15.10;99.90
40660;DHT22;26753;45.544;9.232;2023-04-03T00:08:25;15.10;99.90
40660;DHT22;26753;45.544;9.232;2023-04-03T00:10:51;14.80;99.90
40660;DHT22;26753;45.544;9.232;2023-04-03T00:13:17;14.50;99.90
40660;DHT22;26753;45.544;9.232;2023-04-03T00:15:43;15.30;99.90
40660;DHT22;26753;45.544;9.232;2023-04-03T00:18:09;13.70;99.90
40660;DHT22;26753;45.544;9.232;2023-04-03T00:20:35;14.60;99.90
40660;DHT22;26753;45.544;9.232;2023-04-03T00:23:01;14.60;99.90
40660;DHT22;26753;45.544;9.232;2023-04-03T00:25:27;14.60;99.90
40660;DHT22;26753;45.544;9.232;2023-04-03T00:27:53;14.60;99.90
40660;DHT22;26753;45.544;9.232;2023-04-03T00:30:20;14.70;99.90
40660;DHT22;26753;45.544;9.232;2023-04-03T00:32:47;14.60;99.90
40660;DHT22;26753;45.544;9.232;2023-04-03T00:35:13;14.50;99.90
40660;DHT22;26753;45.544;9.232;2023-04-03T00:37:41;13.50;99.90
40660;DHT22;26753;45.544;9.232;2023-04-03T00:40:07;14.90;99.90
40660;DHT22;26753;45.544;9.232;2023-04-03T00:42:36;14.50;99.90
40660;DHT22;26753;45.544;9.232;2023-04-03T00:47:28;14.50;99.90
40660;DHT22;26753;45.544;9.232;2023-04-03T00:49:54;14.50;99.90
40660;DHT22;26753;45.544;9.232;2023-04-03T00:52:21;14.50;99.90
40660;DHT22;26753;45.544;9.232;2023-04-03T00:54:50;14.50;99.90
40660;DHT22;26753;45.544;9.232;2023-04-03T00:57:18;14.40;99.90
40660;DHT22;26753;45.544;9.232;2023-04-03T00:59:46;14.30;99.90
40660;DHT22;26753;45.544;9.232;2023-04-03T01:02:13;14.40;99.90
40660;DHT22;26753;45.544;9.232;2023-04-03T01:04:42;14.30;99.90
40660;DHT22;26753;45.544;9.232;2023-04-03T01:09:34;14.30;99.90
40660;DHT22;26753;45.544;9.232;2023-04-03T01:12:20;14.30;99.90
40660;DHT22;26753;45.544;9.232;2023-04-03T01:14:47;14.30;99.90
40660;DHT22;26753;45.544;9.232;2023-04-03T01:17:25;14.30;99.90
40660;DHT22;26753;45.544;9.232;2023-04-03T01:19:55;14.20;99.90
40660;DHT22;26753;45.544;9.232;2023-04-03T01:22:26;14.20;99.90
40660;DHT22;26753;45.544;9.232;2023-04-03T01:25:00;14.10;99.90
40660;DHT22;26753;45.544;9.232;2023-04-03T01:27:40;14.00;99.90
40660;DHT22;26753;45.544;9.232;2023-04-03T01:33:10;14.10;99.90
40660;DHT22;26753;45.544;9.232;2023-04-03T01:39:23;14.00;99.90
40660;DHT22;26753;45.544;9.232;2023-04-03T01:41:52;14.00;99.90
40660;DHT22;26753;45.544;9.232;2023-04-03T01:44:20;13.80;99.90
40660;DHT22;26753;45.544;9.232;2023-04-03T01:46:46;13.60;99.90
40660;DHT22;26753;45.544;9.232;2023-04-03T01:49:12;13.10;99.90
40660;DHT22;26753;45.544;9.232;2023-04-03T01:51:38;12.90;99.90
40660;DHT22;26753;45.544;9.232;2023-04-03T01:54:03;13.90;99.90
40660;DHT22;26753;45.544;9.232;2023-04-03T01:56:29;14.80;99.90
40660;DHT22;26753;45.544;9.232;2023-04-03T01:58:55;13.30;99.90
40660;DHT22;26753;45.544;9.232;2023-04-03T02:01:20;12.40;99.90
40660;DHT22;26753;45.544;9.232;2023-04-03T02:03:46;13.00;99.90
40660;DHT22;26753;45.544;9.232;2023-04-03T02:06:12;13.00;99.90
40660;DHT22;26753;45.544;9.232;2023-04-03T02:08:43;13.40;99.90
40660;DHT22;26753;45.544;9.232;2023-04-03T02:11:09;14.10;99.90
40660;DHT22;26753;45.544;9.232;2023-04-03T02:13:38;14.90;99.90
40660;DHT22;26753;45.544;9.232;2023-04-03T02:16:10;13.00;99.90
40660;DHT22;26753;45.544;9.232;2023-04-03T02:18:41;14.10;99.90
40660;DHT22;26753;45.544;9.232;2023-04-03T02:24:22;11.80;99.90
40660;DHT22;26753;45.544;9.232;2023-04-03T02:26:56;12.80;99.90
40660;DHT22;26753;45.544;9.232;2023-04-03T02:29:22;14.00;99.90
40660;DHT22;26753;45.544;9.232;2023-04-03T02:31:47;12.90;99.90
40660;DHT22;26753;45.544;9.232;2023-04-03T02:34:13;12.30;99.90
40660;DHT22;26753;45.544;9.232;2023-04-03T02:36:39;12.20;99.90
40660;DHT22;26753;45.544;9.232;2023-04-03T02:39:04;12.50;99.90
40660;DHT22;26753;45.544;9.232;2023-04-03T02:41:30;11.50;99.90
40660;DHT22;26753;45.544;9.232;2023-04-03T02:44:02;11.80;99.90
40660;DHT22;26753;45.544;9.232;2023-04-03T02:46:28;12.50;99.90
40660;DHT22;26753;45.544;9.232;2023-04-03T02:52:24;13.00;99.90
40660;DHT22;26753;45.544;9.232;2023-04-03T02:57:31;11.50;99.90
40660;DHT22;26753;45.544;9.232;2023-04-03T03:00:00;11.40;99.90
40660;DHT22;26753;45.544;9.232;2023-04-03T03:02:35;11.90;99.90
40660;DHT22;26753;45.544;9.232;2023-04-03T03:05:01;11.90;99.90
40660;DHT22;26753;45.544;9.232;2023-04-03T03:07:27;13.00;99.90
40660;DHT22;26753;45.544;9.232;2023-04-03T03:09:55;12.60;99.90
40660;DHT22;26753;45.544;9.232;2023-04-03T03:12:21;12.40;99.90
40660;DHT22;26753;45.544;9.232;2023-04-03T03:14:47;12.20;99.90
40660;DHT22;26753;45.544;9.232;2023-04-03T03:17:13;11.70;99.90
40660;DHT22;26753;45.544;9.232;2023-04-03T03:19:41;13.60;99.90
40660;DHT22;26753;45.544;9.232;2023-04-03T03:22:13;11.90;99.90
40660;DHT22;26753;45.544;9.232;2023-04-03T03:24:39;12.20;99.90
40660;DHT22;26753;45.544;9.232;2023-04-03T03:30:05;11.60;99.90
40660;DHT22;26753;45.544;9.232;2023-04-03T03:32:34;11.50;99.90
40660;DHT22;26753;45.544;9.232;2023-04-03T03:35:00;11.00;99.90
40660;DHT22;26753;45.544;9.232;2023-04-03T03:37:26;12.60;99.90
40660;DHT22;26753;45.544;9.232;2023-04-03T03:39:55;11.60;99.90
40660;DHT22;26753;45.544;9.232;2023-04-03T03:42:30;12.70;99.90
40660;DHT22;26753;45.544;9.232;2023-04-03T03:45:00;12.90;99.90
40660;DHT22;26753;45.544;9.232;2023-04-03T03:47:29;11.90;99.90
40660;DHT22;26753;45.544;9.232;2023-04-03T03:49:54;13.10;99.90
40660;DHT22;26753;45.544;9.232;2023-04-03T03:52:20;12.00;99.90
40660;DHT22;26753;45.544;9.232;2023-04-03T03:54:46;13.00;99.90
40660;DHT22;26753;45.544;9.232;2023-04-03T03:57:15;12.80;99.90
40660;DHT22;26753;45.544;9.232;2023-04-03T03:59:40;11.50;99.90
40660;DHT22;26753;45.544;9.232;2023-04-03T04:02:07;11.60;99.90
40660;DHT22;26753;45.544;9.232;2023-04-03T04:04:32;12.60;99.90
40660;DHT22;26753;45.544;9.232;2023-04-03T04:07:06;11.80;99.90
40660;DHT22;26753;45.544;9.232;2023-04-03T04:09:31;11.80;99.90
40660;DHT22;26753;45.544;9.232;2023-04-03T04:11:57;11.60;99.90
40660;DHT22;26753;45.544;9.232;2023-04-03T04:17:35;13.70;99.90
40660;DHT22;26753;45.544;9.232;2023-04-03T04:20:02;13.10;99.90
40660;DHT22;26753;45.544;9.232;2023-04-03T04:22:28;13.10;99.90
40660;DHT22;26753;45.544;9.232;2023-04-03T04:24:53;12.40;99.90
40660;DHT22;26753;45.544;9.232;2023-04-03T04:27:25;12.50;99.90
40660;DHT22;26753;45.544;9.232;2023-04-03T04:29:53;13.20;99.90
40660;DHT22;26753;45.544;9.232;2023-04-03T04:32:22;11.90;99.90
40660;DHT22;26753;45.544;9.232;2023-04-03T04:34:51;12.80;99.90
40660;DHT22;26753;45.544;9.232;2023-04-03T04:37:22;12.90;99.90
40660;DHT22;26753;45.544;9.232;2023-04-03T04:39:47;11.90;99.90
40660;DHT22;26753;45.544;9.232;2023-04-03T04:42:22;10.40;99.90
40660;DHT22;26753;45.544;9.232;2023-04-03T04:44:57;11.50;99.90
40660;DHT22;26753;45.544;9.232;2023-04-03T04:47:28;12.90;99.90
40660;DHT22;26753;45.544;9.232;2023-04-03T04:50:10;12.40;99.90
40660;DHT22;26753;45.544;9.232;2023-04-03T04:52:36;11.50;99.90
40660;DHT22;26753;45.544;9.232;2023-04-03T04:58:24;12.20;99.90
40660;DHT22;26753;45.544;9.232;2023-04-03T05:01:00;11.00;99.90
40660;DHT22;26753;45.544;9.232;2023-04-03T05:03:25;11.10;99.90
40660;DHT22;26753;45.544;9.232;2023-04-03T05:05:51;11.40;99.90
40660;DHT22;26753;45.544;9.232;2023-04-03T05:08:41;11.80;99.90
40660;DHT22;26753;45.544;9.232;2023-04-03T05:11:09;12.20;99.90
40660;DHT22;26753;45.544;9.232;2023-04-03T05:13:37;13.20;99.90
40660;DHT22;26753;45.544;9.232;2023-04-03T05:16:03;13.50;99.90
40660;DHT22;26753;45.544;9.232;2023-04-03T05:18:35;13.00;99.90
40660;DHT22;26753;45.544;9.232;2023-04-03T05:21:06;12.50;99.90
40660;DHT22;26753;45.544;9.232;2023-04-03T05:23:32;12.60;99.90
40660;DHT22;26753;45.544;9.232;2023-04-03T05:25:58;13.10;99.90
40660;DHT22;26753;45.544;9.232;2023-04-03T05:28:24;12.40;99.90
40660;DHT22;26753;45.544;9.232;2023-04-03T05:30:52;12.70;99.90
40660;DHT22;26753;45.544;9.232;2023-04-03T05:33:19;11.40;99.90
40660;DHT22;26753;45.544;9.232;2023-04-03T05:35:45;10.50;99.90
40660;DHT22;26753;45.544;9.232;2023-04-03T05:38:10;12.80;99.90
40660;DHT22;26753;45.544;9.232;2023-04-03T05:40:38;14.00;99.90
40660;DHT22;26753;45.544;9.232;2023-04-03T05:43:04;12.90;99.90
40660;DHT22;26753;45.544;9.232;2023-04-03T05:45:30;12.90;99.90
40660;DHT22;26753;45.544;9.232;2023-04-03T05:47:55;13.20;99.90
40660;DHT22;26753;45.544;9.232;2023-04-03T05:50:21;13.00;99.90
40660;DHT22;26753;45.544;9.232;2023-04-03T05:55:12;13.90;99.90
40660;DHT22;26753;45.544;9.232;2023-04-03T05:57:38;13.60;99.90
40660;DHT22;26753;45.544;9.232;2023-04-03T06:00:04;13.50;99.90
40660;DHT22;26753;45.544;9.232;2023-04-03T06:02:31;14.00;99.90
40660;DHT22;26753;45.544;9.232;2023-04-03T06:04:57;13.20;99.90
40660;DHT22;26753;45.544;9.232;2023-04-03T06:07:23;13.30;99.90
40660;DHT22;26753;45.544;9.232;2023-04-03T06:09:52;14.00;99.90
40660;DHT22;26753;45.544;9.232;2023-04-03T06:12:18;14.20;99.90
40660;DHT22;26753;45.544;9.232;2023-04-03T06:14:44;14.20;99.90
40660;DHT22;26753;45.544;9.232;2023-04-03T06:17:10;13.30;99.90
40660;DHT22;26753;45.544;9.232;2023-04-03T06:19:37;14.10;99.90
40660;DHT22;26753;45.544;9.232;2023-04-03T06:22:03;14.20;99.90
40660;DHT22;26753;45.544;9.232;2023-04-03T06:24:29;17.50;99.90
40660;DHT22;26753;45.544;9.232;2023-04-03T06:26:55;15.50;99.90
40660;DHT22;26753;45.544;9.232;2023-04-03T06:29:24;14.40;99.90
40660;DHT22;26753;45.544;9.232;2023-04-03T06:31:50;14.30;99.90
40660;DHT22;26753;45.544;9.232;2023-04-03T06:34:18;13.30;99.90
40660;DHT22;26753;45.544;9.232;2023-04-03T06:36:47;14.60;99.90
40660;DHT22;26753;45.544;9.232;2023-04-03T06:39:24;14.70;99.90
40660;DHT22;26753;45.544;9.232;2023-04-03T06:41:50;14.80;99.90
40660;DHT22;26753;45.544;9.232;2023-04-03T06:44:16;14.90;99.90
40660;DHT22;26753;45.544;9.232;2023-04-03T06:46:45;15.10;99.90
40660;DHT22;26753;45.544;9.232;2023-04-03T06:49:11;15.30;99.90
40660;DHT22;26753;45.544;9.232;2023-04-03T06:54:54;15.20;99.90
40660;DHT22;26753;45.544;9.232;2023-04-03T06:57:24;15.40;99.90
40660;DHT22;26753;45.544;9.232;2023-04-03T06:59:53;15.40;99.90
40660;DHT22;26753;45.544;9.232;2023-04-03T07:02:46;15.60;99.90
40660;DHT22;26753;45.544;9.232;2023-04-03T07:05:44;15.70;99.90
40660;DHT22;26753;45.544;9.232;2023-04-03T07:09:20;15.50;99.90
40660;DHT22;26753;45.544;9.232;2023-04-03T07:33:14;16.50;99.90
40660;DHT22;26753;45.544;9.232;2023-04-03T07:36:24;16.70;99.90
40660;DHT22;26753;45.544;9.232;2023-04-03T07:38:59;16.60;99.90
40660;DHT22;26753;45.544;9.232;2023-04-03T08:00:03;16.90;99.90
40660;DHT22;26753;45.544;9.232;2023-04-03T08:02:39;17.00;99.90
40660;DHT22;26753;45.544;9.232;2023-04-03T08:05:37;17.00;99.90
40660;DHT22;26753;45.544;9.232;2023-04-03T08:08:15;17.10;99.90
40660;DHT22;26753;45.544;9.232;2023-04-03T09:09:39;17.50;99.90
40660;DHT22;26753;45.544;9.232;2023-04-03T09:15:24;17.60;99.90
40660;DHT22;26753;45.544;9.232;2023-04-03T09:17:53;17.70;99.90
40660;DHT22;26753;45.544;9.232;2023-04-03T09:23:44;17.90;99.90
40660;DHT22;26753;45.544;9.232;2023-04-03T09:26:16;18.00;99.90
40660;DHT22;26753;45.544;9.232;2023-04-03T09:29:07;18.00;99.90
40660;DHT22;26753;45.544;9.232;2023-04-03T09:31:38;18.10;99.90
40660;DHT22;26753;45.544;9.232;2023-04-03T09:34:10;18.10;99.90
40660;DHT22;26753;45.544;9.232;2023-04-03T09:36:47;18.10;99.90
40660;DHT22;26753;45.544;9.232;2023-04-03T09:39:32;18.30;99.90
40660;DHT22;26753;45.544;9.232;2023-04-03T09:42:19;18.40;99.90
40660;DHT22;26753;45.544;9.232;2023-04-03T09:48:07;18.50;99.90
40660;DHT22;26753;45.544;9.232;2023-04-03T09:50:53;18.60;99.90
40660;DHT22;26753;45.544;9.232;2023-04-03T09:53:31;18.70;99.90
40660;DHT22;26753;45.544;9.232;2023-04-03T09:56:05;18.80;99.90
40660;DHT22;26753;45.544;9.232;2023-04-03T09:59:15;18.90;99.90
40660;DHT22;26753;45.544;9.232;2023-04-03T10:04:40;19.10;99.90
40660;DHT22;26753;45.544;9.232;2023-04-03T10:09:54;19.30;99.90
40660;DHT22;26753;45.544;9.232;2023-04-03T10:12:28;19.40;99.90
40660;DHT22;26753;45.544;9.232;2023-04-03T10:15:11;19.60;99.90
40660;DHT22;26753;45.544;9.232;2023-04-03T10:20:26;19.70;99.90
40660;DHT22;26753;45.544;9.232;2023-04-03T10:23:07;19.60;99.90
40660;DHT22;26753;45.544;9.232;2023-04-03T10:26:12;19.70;99.90
40660;DHT22;26753;45.544;9.232;2023-04-03T10:28:33;19.90;99.90
40660;DHT22;26753;45.544;9.232;2023-04-03T10:34:31;20.10;99.90
40660;DHT22;26753;45.544;9.232;2023-04-03T10:40:20;20.40;99.90
40660;DHT22;26753;45.544;9.232;2023-04-03T11:04:43;20.30;99.90
40660;DHT22;26753;45.544;9.232;2023-04-03T11:16:29;21.00;98.30
40660;DHT22;26753;45.544;9.232;2023-04-03T11:22:03;21.70;97.10
40660;DHT22;26753;45.544;9.232;2023-04-03T11:24:34;21.90;96.90
40660;DHT22;26753;45.544;9.232;2023-04-03T11:27:01;22.30;96.30
40660;DHT22;26753;45.544;9.232;2023-04-03T11:29:34;22.20;95.30
40660;DHT22;26753;45.544;9.232;2023-04-03T11:32:15;22.40;94.40
40660;DHT22;26753;45.544;9.232;2023-04-03T11:35:05;22.10;94.40
40660;DHT22;26753;45.544;9.232;2023-04-03T11:37:39;21.60;94.50
40660;DHT22;26753;45.544;9.232;2023-04-03T11:42:49;21.90;94.50
40660;DHT22;26753;45.544;9.232;2023-04-03T11:53:47;22.60;93.50
40660;DHT22;26753;45.544;9.232;2023-04-03T12:04:11;23.60;91.00
40660;DHT22;26753;45.544;9.232;2023-04-03T12:09:54;23.50;90.00
40660;DHT22;26753;45.544;9.232;2023-04-03T12:15:51;23.90;88.30
40660;DHT22;26753;45.544;9.232;2023-04-03T12:18:39;25.50;86.20
40660;DHT22;26753;45.544;9.232;2023-04-03T12:21:09;29.80;79.20
40660;DHT22;26753;45.544;9.232;2023-04-03T12:26:24;34.70;59.70
40660;DHT22;26753;45.544;9.232;2023-04-03T12:28:54;34.00;58.40
40660;DHT22;26753;45.544;9.232;2023-04-03T12:31:22;35.60;56.00
40660;DHT22;26753;45.544;9.232;2023-04-03T12:36:49;39.00;52.20
40660;DHT22;26753;45.544;9.232;2023-04-03T12:47:40;42.30;47.10
40660;DHT22;26753;45.544;9.232;2023-04-03T12:50:16;42.10;45.00
40660;DHT22;26753;45.544;9.232;2023-04-03T12:52:54;42.80;45.60
40660;DHT22;26753;45.544;9.232;2023-04-03T12:55:21;40.90;44.20
40660;DHT22;26753;45.544;9.232;2023-04-03T12:57:47;41.80;44.20
40660;DHT22;26753;45.544;9.232;2023-04-03T13:00:36;43.50;44.70
40660;DHT22;26753;45.544;9.232;2023-04-03T13:03:04;42.30;43.10
40660;DHT22;26753;45.544;9.232;2023-04-03T13:05:31;43.00;43.60
40660;DHT22;26753;45.544;9.232;2023-04-03T13:08:00;43.10;42.50
40660;DHT22;26753;45.544;9.232;2023-04-03T13:10:28;44.40;42.30
40660;DHT22;26753;45.544;9.232;2023-04-03T13:12:55;45.30;42.30
40660;DHT22;26753;45.544;9.232;2023-04-03T13:15:23;45.90;40.70
40660;DHT22;26753;45.544;9.232;2023-04-03T13:17:50;46.20;40.80
40660;DHT22;26753;45.544;9.232;2023-04-03T13:20:22;46.20;40.50
40660;DHT22;26753;45.544;9.232;2023-04-03T13:23:01;46.30;39.70
40660;DHT22;26753;45.544;9.232;2023-04-03T13:25:40;46.00;39.60
40660;DHT22;26753;45.544;9.232;2023-04-03T13:28:06;45.60;40.40
40660;DHT22;26753;45.544;9.232;2023-04-03T13:30:33;46.80;40.10
40660;DHT22;26753;45.544;9.232;2023-04-03T13:33:00;45.80;38.70
40660;DHT22;26753;45.544;9.232;2023-04-03T13:37:56;46.20;39.10
40660;DHT22;26753;45.544;9.232;2023-04-03T13:40:22;47.00;39.30
40660;DHT22;26753;45.544;9.232;2023-04-03T13:42:58;48.20;39.20
40660;DHT22;26753;45.544;9.232;2023-04-03T13:45:25;48.80;38.80
40660;DHT22;26753;45.544;9.232;2023-04-03T13:47:53;49.30;38.30
40660;DHT22;26753;45.544;9.232;2023-04-03T13:52:47;49.20;37.70
40660;DHT22;26753;45.544;9.232;2023-04-03T13:58:28;49.20;37.60
40660;DHT22;26753;45.544;9.232;2023-04-03T14:01:23;49.30;37.10
40660;DHT22;26753;45.544;9.232;2023-04-03T14:03:24;48.70;36.20
40660;DHT22;26753;45.544;9.232;2023-04-03T14:05:52;49.00;37.20
40660;DHT22;26753;45.544;9.232;2023-04-03T14:08:18;48.20;36.50
40660;DHT22;26753;45.544;9.232;2023-04-03T14:10:44;48.60;36.90
40660;DHT22;26753;45.544;9.232;2023-04-03T14:13:13;48.00;36.00
40660;DHT22;26753;45.544;9.232;2023-04-03T14:15:39;46.40;37.00
40660;DHT22;26753;45.544;9.232;2023-04-03T14:18:04;47.30;37.30
40660;DHT22;26753;45.544;9.232;2023-04-03T14:20:30;48.90;37.00
40660;DHT22;26753;45.544;9.232;2023-04-03T14:22:55;49.80;37.80
40660;DHT22;26753;45.544;9.232;2023-04-03T14:25:21;49.50;36.50
40660;DHT22;26753;45.544;9.232;2023-04-03T14:27:49;49.30;36.30
40660;DHT22;26753;45.544;9.232;2023-04-03T14:30:18;49.60;36.80
40660;DHT22;26753;45.544;9.232;2023-04-03T14:32:47;50.50;36.40
40660;DHT22;26753;45.544;9.232;2023-04-03T14:35:16;50.70;36.40
40660;DHT22;26753;45.544;9.232;2023-04-03T14:37:41;50.00;36.30
40660;DHT22;26753;45.544;9.232;2023-04-03T14:40:08;49.50;35.70
40660;DHT22;26753;45.544;9.232;2023-04-03T14:42:35;49.90;36.20
40660;DHT22;26753;45.544;9.232;2023-04-03T14:45:04;49.70;36.00
40660;DHT22;26753;45.544;9.232;2023-04-03T14:47:30;49.70;36.20
40660;DHT22;26753;45.544;9.232;2023-04-03T14:49:56;50.10;36.20
40660;DHT22;26753;45.544;9.232;2023-04-03T14:52:26;49.90;36.00
40660;DHT22;26753;45.544;9.232;2023-04-03T14:54:52;50.20;36.00
40660;DHT22;26753;45.544;9.232;2023-04-03T14:57:18;51.00;36.00
40660;DHT22;26753;45.544;9.232;2023-04-03T14:59:44;50.80;35.70
40660;DHT22;26753;45.544;9.232;2023-04-03T15:02:15;50.10;35.80
40660;DHT22;26753;45.544;9.232;2023-04-03T15:04:46;49.80;35.50
40660;DHT22;26753;45.544;9.232;2023-04-03T15:07:17;49.40;35.10
40660;DHT22;26753;45.544;9.232;2023-04-03T15:09:43;47.20;35.30
40660;DHT22;26753;45.544;9.232;2023-04-03T15:12:09;43.80;35.80
40660;DHT22;26753;45.544;9.232;2023-04-03T15:14:35;40.80;36.80
40660;DHT22;26753;45.544;9.232;2023-04-03T15:17:01;38.10;38.00
40660;DHT22;26753;45.544;9.232;2023-04-03T15:19:28;35.50;39.30
40660;DHT22;26753;45.544;9.232;2023-04-03T15:21:53;33.50;40.60
40660;DHT22;26753;45.544;9.232;2023-04-03T15:24:19;32.30;41.70
40660;DHT22;26753;45.544;9.232;2023-04-03T15:26:54;31.30;42.70
40660;DHT22;26753;45.544;9.232;2023-04-03T15:29:20;30.10;43.70
40660;DHT22;26753;45.544;9.232;2023-04-03T15:31:46;28.60;45.10
40660;DHT22;26753;45.544;9.232;2023-04-03T15:34:12;28.30;46.00
40660;DHT22;26753;45.544;9.232;2023-04-03T15:36:44;27.60;46.40
40660;DHT22;26753;45.544;9.232;2023-04-03T15:39:09;27.20;47.00
40660;DHT22;26753;45.544;9.232;2023-04-03T15:41:35;27.00;47.30
40660;DHT22;26753;45.544;9.232;2023-04-03T15:44:01;26.50;47.60
40660;DHT22;26753;45.544;9.232;2023-04-03T15:46:26;26.20;47.90
40660;DHT22;26753;45.544;9.232;2023-04-03T15:48:53;25.90;48.40
40660;DHT22;26753;45.544;9.232;2023-04-03T15:51:21;25.70;48.50
40660;DHT22;26753;45.544;9.232;2023-04-03T15:53:46;25.30;48.80
40660;DHT22;26753;45.544;9.232;2023-04-03T15:56:12;25.20;49.00
40660;DHT22;26753;45.544;9.232;2023-04-03T15:58:38;24.50;49.70
40660;DHT22;26753;45.544;9.232;2023-04-03T16:01:06;24.00;50.60
40660;DHT22;26753;45.544;9.232;2023-04-03T16:03:31;24.10;50.50
40660;DHT22;26753;45.544;9.232;2023-04-03T16:05:59;24.20;50.60
40660;DHT22;26753;45.544;9.232;2023-04-03T16:08:26;24.10;50.90
40660;DHT22;26753;45.544;9.232;2023-04-03T16:10:52;23.80;51.00
40660;DHT22;26753;45.544;9.232;2023-04-03T16:13:18;23.50;51.50
40660;DHT22;26753;45.544;9.232;2023-04-03T16:15:46;23.00;52.10
40660;DHT22;26753;45.544;9.232;2023-04-03T16:18:13;22.80;52.50
40660;DHT22;26753;45.544;9.232;2023-04-03T16:20:40;22.70;52.80
40660;DHT22;26753;45.544;9.232;2023-04-03T16:23:51;22.40;53.00
40660;DHT22;26753;45.544;9.232;2023-04-03T16:25:57;22.40;53.10
40660;DHT22;26753;45.544;9.232;2023-04-03T16:28:23;22.30;53.60
40660;DHT22;26753;45.544;9.232;2023-04-03T16:30:49;22.00;53.90
40660;DHT22;26753;45.544;9.232;2023-04-03T16:33:17;21.90;54.10
40660;DHT22;26753;45.544;9.232;2023-04-03T16:35:46;22.10;53.70
40660;DHT22;26753;45.544;9.232;2023-04-03T16:38:13;21.80;54.20
40660;DHT22;26753;45.544;9.232;2023-04-03T16:40:39;21.50;55.20
40660;DHT22;26753;45.544;9.232;2023-04-03T16:43:11;21.50;55.00
40660;DHT22;26753;45.544;9.232;2023-04-03T16:45:40;21.60;54.70
40660;DHT22;26753;45.544;9.232;2023-04-03T16:48:05;21.50;54.80
40660;DHT22;26753;45.544;9.232;2023-04-03T16:50:31;21.30;55.40
40660;DHT22;26753;45.544;9.232;2023-04-03T16:53:00;21.30;55.20
40660;DHT22;26753;45.544;9.232;2023-04-03T16:55:28;21.40;55.30
40660;DHT22;26753;45.544;9.232;2023-04-03T16:57:56;21.30;55.60
40660;DHT22;26753;45.544;9.232;2023-04-03T17:03:20;20.60;56.30
40660;DHT22;26753;45.544;9.232;2023-04-03T17:05:55;20.40;56.90
40660;DHT22;26753;45.544;9.232;2023-04-03T17:08:21;20.10;57.10
40660;DHT22;26753;45.544;9.232;2023-04-03T17:10:47;19.90;57.30
40660;DHT22;26753;45.544;9.232;2023-04-03T17:13:16;19.90;57.60
40660;DHT22;26753;45.544;9.232;2023-04-03T17:15:42;19.80;57.50
40660;DHT22;26753;45.544;9.232;2023-04-03T17:18:07;19.60;58.10
40660;DHT22;26753;45.544;9.232;2023-04-03T17:20:36;19.50;58.30
40660;DHT22;26753;45.544;9.232;2023-04-03T17:23:04;19.50;58.20
40660;DHT22;26753;45.544;9.232;2023-04-03T17:25:29;19.40;58.20
40660;DHT22;26753;45.544;9.232;2023-04-03T17:27:55;19.50;58.40
40660;DHT22;26753;45.544;9.232;2023-04-03T17:30:21;19.30;58.50
40660;DHT22;26753;45.544;9.232;2023-04-03T17:32:50;19.20;58.50
40660;DHT22;26753;45.544;9.232;2023-04-03T17:35:21;18.80;59.10
40660;DHT22;26753;45.544;9.232;2023-04-03T17:37:47;18.80;59.50
40660;DHT22;26753;45.544;9.232;2023-04-03T17:40:14;18.60;59.60
40660;DHT22;26753;45.544;9.232;2023-04-03T17:42:42;18.50;59.70
40660;DHT22;26753;45.544;9.232;2023-04-03T17:45:08;18.50;60.20
40660;DHT22;26753;45.544;9.232;2023-04-03T17:47:39;18.50;60.30
40660;DHT22;26753;45.544;9.232;2023-04-03T17:50:11;18.40;60.90
40660;DHT22;26753;45.544;9.232;2023-04-03T17:52:43;18.30;60.90
40660;DHT22;26753;45.544;9.232;2023-04-03T17:55:27;18.20;60.80
40660;DHT22;26753;45.544;9.232;2023-04-03T18:07:38;18.00;62.00
40660;DHT22;26753;45.544;9.232;2023-04-03T18:13:08;17.90;62.00
40660;DHT22;26753;45.544;9.232;2023-04-03T18:15:34;17.90;62.10
40660;DHT22;26753;45.544;9.232;2023-04-03T18:18:01;17.80;62.70
40660;DHT22;26753;45.544;9.232;2023-04-03T18:20:30;17.70;62.90
40660;DHT22;26753;45.544;9.232;2023-04-03T18:22:59;17.70;62.80
40660;DHT22;26753;45.544;9.232;2023-04-03T18:28:14;17.60;63.00
40660;DHT22;26753;45.544;9.232;2023-04-03T18:30:45;17.60;63.00
40660;DHT22;26753;45.544;9.232;2023-04-03T18:33:11;17.50;64.10
40660;DHT22;26753;45.544;9.232;2023-04-03T18:35:36;17.40;64.10
40660;DHT22;26753;45.544;9.232;2023-04-03T18:38:02;17.30;64.60
40660;DHT22;26753;45.544;9.232;2023-04-03T18:40:30;17.00;65.20
40660;DHT22;26753;45.544;9.232;2023-04-03T18:42:55;17.10;65.10
40660;DHT22;26753;45.544;9.232;2023-04-03T18:45:21;17.00;65.30
40660;DHT22;26753;45.544;9.232;2023-04-03T18:47:47;17.10;65.00
40660;DHT22;26753;45.544;9.232;2023-04-03T18:50:13;17.10;65.70
40660;DHT22;26753;45.544;9.232;2023-04-03T18:52:40;17.00;65.10
40660;DHT22;26753;45.544;9.232;2023-04-03T18:55:06;16.90;65.30
40660;DHT22;26753;45.544;9.232;2023-04-03T18:57:31;16.80;65.80
40660;DHT22;26753;45.544;9.232;2023-04-03T18:59:57;16.70;67.20
40660;DHT22;26753;45.544;9.232;2023-04-03T19:02:22;16.70;65.70
40660;DHT22;26753;45.544;9.232;2023-04-03T19:04:50;16.70;66.00
40660;DHT22;26753;45.544;9.232;2023-04-03T19:07:16;16.70;66.30
40660;DHT22;26753;45.544;9.232;2023-04-03T19:09:42;16.50;66.00
40660;DHT22;26753;45.544;9.232;2023-04-03T19:12:11;16.50;66.30
40660;DHT22;26753;45.544;9.232;2023-04-03T19:14:37;16.40;66.00
40660;DHT22;26753;45.544;9.232;2023-04-03T19:17:03;16.20;66.50
40660;DHT22;26753;45.544;9.232;2023-04-03T19:19:32;16.20;66.30
40660;DHT22;26753;45.544;9.232;2023-04-03T19:21:58;16.20;65.90
40660;DHT22;26753;45.544;9.232;2023-04-03T19:24:23;16.20;65.80
40660;DHT22;26753;45.544;9.232;2023-04-03T19:26:49;16.10;65.60
40660;DHT22;26753;45.544;9.232;2023-04-03T19:29:15;16.00;65.80
40660;DHT22;26753;45.544;9.232;2023-04-03T19:31:40;15.90;65.60
40660;DHT22;26753;45.544;9.232;2023-04-03T19:34:06;15.80;66.40
40660;DHT22;26753;45.544;9.232;2023-04-03T19:36:32;15.70;66.10
40660;DHT22;26753;45.544;9.232;2023-04-03T19:38:58;15.70;65.60
40660;DHT22;26753;45.544;9.232;2023-04-03T19:41:27;15.80;65.70
40660;DHT22;26753;45.544;9.232;2023-04-03T19:43:54;15.80;65.40
40660;DHT22;26753;45.544;9.232;2023-04-03T19:46:24;15.60;65.60
40660;DHT22;26753;45.544;9.232;2023-04-03T19:48:50;15.60;65.40
40660;DHT22;26753;45.544;9.232;2023-04-03T19:51:19;15.50;66.20
40660;DHT22;26753;45.544;9.232;2023-04-03T19:53:49;15.40;65.70
40660;DHT22;26753;45.544;9.232;2023-04-03T19:56:15;15.40;65.90
40660;DHT22;26753;45.544;9.232;2023-04-03T19:58:41;15.40;66.00
40660;DHT22;26753;45.544;9.232;2023-04-03T20:01:07;15.30;66.20
40660;DHT22;26753;45.544;9.232;2023-04-03T20:03:33;15.30;65.90